createdAt,value
2023-01-20T00:01:38.736Z,2.80
2023-01-20T00:04:06.285Z,2.80
2023-01-20T00:06:33.339Z,2.80
2023-01-20T00:09:01.772Z,2.80
2023-01-20T00:11:29.100Z,2.80
2023-01-20T00:13:58.402Z,2.90
2023-01-20T00:16:25.865Z,2.80
2023-01-20T00:18:53.614Z,2.90
2023-01-20T00:21:21.075Z,2.90
2023-01-20T00:23:48.783Z,2.80
2023-01-20T00:26:19.493Z,2.90
2023-01-20T00:28:47.538Z,2.90
2023-01-20T00:31:20.077Z,3.00
2023-01-20T00:33:48.572Z,2.90
2023-01-20T00:36:17.626Z,2.90
2023-01-20T00:38:44.790Z,2.90
2023-01-20T00:41:12.126Z,2.90
2023-01-20T00:43:39.724Z,2.80
2023-01-20T00:46:07.181Z,2.80
2023-01-20T00:48:34.797Z,2.80
2023-01-20T00:51:02.693Z,2.80
2023-01-20T00:53:29.684Z,2.80
2023-01-20T00:55:56.713Z,2.80
2023-01-20T00:58:24.033Z,2.80
2023-01-20T01:00:53.535Z,2.80
2023-01-20T01:03:21.142Z,2.90
2023-01-20T01:05:48.301Z,2.80
2023-01-20T01:08:15.292Z,2.80
2023-01-20T01:10:42.397Z,2.80
2023-01-20T01:13:09.523Z,2.80
2023-01-20T01:15:36.721Z,2.80
2023-01-20T01:18:04.227Z,2.90
2023-01-20T01:20:31.729Z,2.90
2023-01-20T01:22:58.714Z,2.90
2023-01-20T01:25:25.771Z,2.90
2023-01-20T01:27:52.696Z,2.90
2023-01-20T01:30:19.903Z,2.80
2023-01-20T01:32:48.102Z,2.60
2023-01-20T01:35:15.499Z,2.60
2023-01-20T01:37:42.708Z,2.60
2023-01-20T01:40:10.681Z,2.60
2023-01-20T01:42:38.520Z,2.60
2023-01-20T01:45:12.152Z,2.60
2023-01-20T01:47:47.852Z,2.60
2023-01-20T01:50:20.024Z,2.60
2023-01-20T01:52:50.394Z,2.60
2023-01-20T01:55:19.464Z,2.60
2023-01-20T01:57:47.689Z,2.60
2023-01-20T02:00:14.906Z,2.60
2023-01-20T02:02:44.557Z,2.50
2023-01-20T02:05:15.042Z,2.50
2023-01-20T02:07:46.594Z,2.50
2023-01-20T02:10:14.607Z,2.50
2023-01-20T02:12:47.336Z,2.60
2023-01-20T02:15:15.132Z,2.60
2023-01-20T02:18:20.614Z,2.60
2023-01-20T02:21:08.629Z,2.50
2023-01-20T02:23:52.200Z,2.50
2023-01-20T02:26:21.826Z,2.60
2023-01-20T02:29:26.528Z,2.60
2023-01-20T02:32:24.889Z,2.60
2023-01-20T02:35:03.308Z,2.70
2023-01-20T02:37:38.962Z,2.60
2023-01-20T02:40:33.044Z,2.60
2023-01-20T02:43:21.045Z,2.60
2023-01-20T02:46:01.776Z,2.70
2023-01-20T02:48:44.278Z,2.60
2023-01-20T02:51:37.009Z,2.60
2023-01-20T02:54:08.260Z,2.60
2023-01-20T02:56:36.767Z,2.60
2023-01-20T02:59:12.369Z,2.60
2023-01-20T03:01:43.540Z,2.70
2023-01-20T03:04:15.281Z,2.70
2023-01-20T03:06:50.313Z,2.70
2023-01-20T03:09:22.222Z,2.70
2023-01-20T03:11:56.786Z,2.60
2023-01-20T03:14:23.799Z,2.60
2023-01-20T03:16:51.025Z,2.60
2023-01-20T03:19:20.528Z,2.60
2023-01-20T03:21:48.615Z,2.60
2023-01-20T03:24:15.717Z,2.60
2023-01-20T03:26:42.803Z,2.50
2023-01-20T03:29:16.065Z,2.40
2023-01-20T03:31:51.060Z,2.40
2023-01-20T03:34:22.113Z,2.30
2023-01-20T03:36:50.218Z,2.30
2023-01-20T03:39:17.835Z,2.20
2023-01-20T03:42:08.729Z,2.20
2023-01-20T03:45:15.395Z,2.20
2023-01-20T03:47:51.830Z,2.20
2023-01-20T03:50:18.747Z,2.20
2023-01-20T03:52:57.338Z,2.20
2023-01-20T03:55:34.328Z,2.20
2023-01-20T03:58:06.686Z,2.20
2023-01-20T04:00:39.738Z,2.20
2023-01-20T04:03:16.468Z,2.20
2023-01-20T04:05:46.162Z,2.20
2023-01-20T04:08:16.289Z,2.20
2023-01-20T04:10:46.704Z,2.20
2023-01-20T04:13:15.299Z,2.20
2023-01-20T04:15:44.856Z,2.20
2023-01-20T04:18:17.833Z,2.20
2023-01-20T04:20:48.541Z,2.10
2023-01-20T04:23:45.856Z,2.10
2023-01-20T04:26:12.793Z,2.00
2023-01-20T04:28:39.681Z,2.00
2023-01-20T04:31:07.711Z,2.00
2023-01-20T04:33:39.149Z,2.00
2023-01-20T04:36:06.246Z,2.00
2023-01-20T04:38:33.376Z,2.00
2023-01-20T04:41:02.146Z,2.10
2023-01-20T04:43:30.475Z,2.10
2023-01-20T04:45:57.485Z,2.00
2023-01-20T04:48:24.432Z,2.00
2023-01-20T04:50:51.386Z,2.00
2023-01-20T04:53:19.504Z,2.00
2023-01-20T04:55:47.016Z,2.00
2023-01-20T04:58:14.127Z,2.00
2023-01-20T05:00:43.445Z,2.00
2023-01-20T05:03:10.661Z,2.00
2023-01-20T05:05:37.630Z,2.00
2023-01-20T05:08:04.868Z,2.00
2023-01-20T05:10:32.970Z,2.00
2023-01-20T05:13:00.778Z,2.00
2023-01-20T05:15:28.272Z,2.00
2023-01-20T05:17:55.203Z,2.00
2023-01-20T05:20:22.183Z,2.00
2023-01-20T05:22:49.119Z,1.90
2023-01-20T05:25:16.418Z,1.90
2023-01-20T05:27:45.114Z,2.00
2023-01-20T05:30:12.700Z,1.90
2023-01-20T05:32:39.668Z,1.90
2023-01-20T05:35:07.168Z,1.90
2023-01-20T05:37:34.083Z,1.90
2023-01-20T05:40:01.004Z,1.80
2023-01-20T05:42:27.938Z,1.80
2023-01-20T05:44:54.937Z,1.80
2023-01-20T05:47:21.841Z,1.80
2023-01-20T05:49:48.775Z,1.80
2023-01-20T05:52:15.792Z,1.80
2023-01-20T05:54:42.743Z,1.80
2023-01-20T05:57:09.698Z,1.70
2023-01-20T05:59:36.895Z,1.80
2023-01-20T06:02:03.878Z,1.70
2023-01-20T06:04:30.797Z,1.70
2023-01-20T06:06:58.280Z,1.70
2023-01-20T06:09:25.243Z,1.70
2023-01-20T06:11:52.221Z,1.70
2023-01-20T06:14:19.304Z,1.70
2023-01-20T06:19:22.335Z,1.70
2023-01-20T06:21:49.255Z,1.70
2023-01-20T06:24:16.316Z,1.70
2023-01-20T06:26:43.279Z,1.80
2023-01-20T06:29:10.384Z,1.80
2023-01-20T06:31:37.549Z,1.90
2023-01-20T06:34:04.620Z,1.90
2023-01-20T06:36:31.599Z,1.90
2023-01-20T06:38:58.636Z,1.90
2023-01-20T06:41:26.056Z,1.90
2023-01-20T06:43:53.027Z,1.80
2023-01-20T06:46:22.199Z,1.80
2023-01-20T06:48:49.446Z,1.80
2023-01-20T06:51:21.277Z,1.80
2023-01-20T06:53:48.483Z,1.80
2023-01-20T06:56:16.228Z,1.80
2023-01-20T06:58:43.553Z,1.80
2023-01-20T07:01:28.949Z,1.80
2023-01-20T07:03:56.323Z,1.80
2023-01-20T07:06:32.234Z,1.90
2023-01-20T07:09:00.409Z,1.80
2023-01-20T07:11:29.031Z,1.90
2023-01-20T07:13:56.127Z,1.90
2023-01-20T07:16:23.156Z,1.90
2023-01-20T07:18:51.864Z,1.90
2023-01-20T07:21:19.469Z,1.80
2023-01-20T07:23:47.104Z,1.90
2023-01-20T07:26:19.859Z,1.80
2023-01-20T07:28:48.055Z,1.80
2023-01-20T07:31:20.071Z,1.80
2023-01-20T07:33:47.237Z,1.80
2023-01-20T07:36:15.723Z,1.80
2023-01-20T07:38:42.919Z,1.80
2023-01-20T07:41:16.251Z,1.80
2023-01-20T07:43:44.469Z,1.80
2023-01-20T07:46:12.309Z,1.80
2023-01-20T07:48:40.049Z,1.80
2023-01-20T07:51:10.195Z,1.80
2023-01-20T07:53:39.778Z,1.80
2023-01-20T07:56:11.016Z,1.90
2023-01-20T07:58:38.484Z,1.90
2023-01-20T08:01:15.599Z,1.80
2023-01-20T08:03:43.914Z,1.70
2023-01-20T08:06:13.359Z,1.70
2023-01-20T08:08:40.486Z,1.70
2023-01-20T08:11:09.383Z,1.60
2023-01-20T08:13:37.079Z,1.50
2023-01-20T08:16:07.257Z,1.40
2023-01-20T08:18:35.705Z,1.40
2023-01-20T08:21:08.273Z,1.30
2023-01-20T08:23:36.136Z,1.30
2023-01-20T08:26:06.427Z,1.30
2023-01-20T08:28:35.921Z,1.40
2023-01-20T08:31:14.018Z,1.50
2023-01-20T08:33:44.713Z,1.50
2023-01-20T08:36:18.431Z,1.50
2023-01-20T08:38:49.103Z,1.50
2023-01-20T08:41:22.246Z,1.50
2023-01-20T08:43:50.109Z,1.50
2023-01-20T08:46:18.962Z,1.40
2023-01-20T08:48:46.271Z,1.50
2023-01-20T08:51:23.132Z,1.50
2023-01-20T08:53:50.766Z,1.60
2023-01-20T08:56:18.469Z,1.50
2023-01-20T08:58:46.075Z,1.50
2023-01-20T09:01:16.494Z,1.70
2023-01-20T09:03:58.910Z,1.80
2023-01-20T09:06:32.377Z,1.90
2023-01-20T09:08:59.451Z,2.00
2023-01-20T09:11:26.494Z,2.00
2023-01-20T09:13:54.981Z,2.00
2023-01-20T09:16:22.027Z,2.10
2023-01-20T09:18:49.142Z,2.10
2023-01-20T09:21:16.142Z,2.10
2023-01-20T09:23:43.491Z,2.30
2023-01-20T09:26:10.804Z,2.40
2023-01-20T09:28:37.771Z,2.50
2023-01-20T09:31:07.802Z,2.60
2023-01-20T09:33:38.281Z,2.80
2023-01-20T09:36:07.985Z,2.90
2023-01-20T09:38:53.980Z,3.00
2023-01-20T09:41:45.611Z,3.10
2023-01-20T09:44:24.751Z,3.30
2023-01-20T09:47:22.696Z,3.10
2023-01-20T09:50:30.083Z,3.30
2023-01-20T09:53:27.724Z,3.50
2023-01-20T09:56:06.459Z,3.60
2023-01-20T09:59:04.959Z,3.90
2023-01-20T10:01:43.868Z,4.10
2023-01-20T10:04:41.748Z,4.30
2023-01-20T10:07:35.006Z,4.20
2023-01-20T10:10:14.758Z,4.30
2023-01-20T10:12:57.117Z,4.50
2023-01-20T10:15:30.149Z,4.60
2023-01-20T10:18:20.403Z,4.50
2023-01-20T10:21:02.314Z,4.50
2023-01-20T10:23:49.811Z,4.60
2023-01-20T10:26:22.781Z,4.70
2023-01-20T10:28:59.494Z,4.90
2023-01-20T10:31:29.482Z,4.90
2023-01-20T10:34:00.729Z,5.10
2023-01-20T10:36:34.931Z,5.10
2023-01-20T10:39:28.516Z,5.30
2023-01-20T10:42:05.121Z,5.40
2023-01-20T10:44:38.455Z,5.40
2023-01-20T10:47:29.869Z,5.50
2023-01-20T10:50:21.826Z,5.50
2023-01-20T10:53:06.000Z,5.80
2023-01-20T10:56:02.357Z,5.90
2023-01-20T10:58:35.530Z,5.90
2023-01-20T11:01:09.037Z,5.90
2023-01-20T11:03:40.761Z,6.00
2023-01-20T11:06:10.864Z,6.10
2023-01-20T11:08:37.784Z,6.10
2023-01-20T11:11:15.016Z,6.00
2023-01-20T11:13:42.037Z,6.20
2023-01-20T11:16:20.654Z,6.30
2023-01-20T11:19:13.959Z,7.10
2023-01-20T11:21:41.633Z,8.20
2023-01-20T11:24:30.530Z,8.70
2023-01-20T11:27:11.871Z,9.30
2023-01-20T11:29:55.544Z,9.90
2023-01-20T11:32:39.297Z,9.50
2023-01-20T11:41:29.690Z,7.90
2023-01-20T11:43:59.388Z,7.80
2023-01-20T11:46:28.993Z,7.40
2023-01-20T11:49:22.821Z,7.20
2023-01-20T11:51:55.659Z,7.30
2023-01-20T11:54:26.940Z,7.40
2023-01-20T11:57:07.798Z,7.50
2023-01-20T11:59:36.899Z,7.70
2023-01-20T12:02:10.073Z,7.50
2023-01-20T12:05:01.300Z,7.60
2023-01-20T12:07:45.695Z,7.60
2023-01-20T12:10:18.425Z,7.60
2023-01-20T12:13:03.146Z,7.40
2023-01-20T12:15:33.781Z,7.40
2023-01-20T12:18:18.968Z,7.50
2023-01-20T12:20:59.199Z,7.60
2023-01-20T12:23:46.418Z,7.70
2023-01-20T12:26:16.062Z,8.00
2023-01-20T12:28:51.007Z,8.00
2023-01-20T12:31:20.404Z,8.00
2023-01-20T12:34:02.644Z,7.80
2023-01-20T12:36:38.625Z,7.40
2023-01-20T12:39:24.333Z,7.00
2023-01-20T12:42:19.165Z,6.70
2023-01-20T12:44:49.251Z,6.70
2023-01-20T12:47:44.081Z,6.40
2023-01-20T12:50:20.286Z,6.30
2023-01-20T12:53:02.553Z,6.10
2023-01-20T12:55:48.853Z,6.00
2023-01-20T12:58:33.820Z,6.00
2023-01-20T13:01:35.775Z,6.10
2023-01-20T13:04:45.837Z,6.30
2023-01-20T13:07:31.628Z,6.40
2023-01-20T13:10:20.155Z,6.50
2023-01-20T13:13:17.932Z,6.50
2023-01-20T13:15:59.362Z,6.60
2023-01-20T13:18:54.113Z,6.60
2023-01-20T13:21:21.443Z,6.60
2023-01-20T13:23:52.749Z,6.50
2023-01-20T13:26:20.062Z,6.50
2023-01-20T13:28:55.107Z,6.30
2023-01-20T13:31:33.530Z,6.20
2023-01-20T13:34:22.528Z,6.10
2023-01-20T13:37:04.877Z,6.00
2023-01-20T13:39:39.737Z,5.90
2023-01-20T13:42:37.671Z,5.80
2023-01-20T13:45:14.319Z,5.90
2023-01-20T13:48:05.803Z,5.90
2023-01-20T13:50:33.951Z,6.00
2023-01-20T13:53:00.868Z,6.00
2023-01-20T13:55:49.883Z,5.90
2023-01-20T13:58:33.891Z,5.80
2023-01-20T14:01:02.153Z,5.80
2023-01-20T14:03:32.177Z,5.70
2023-01-20T14:06:00.476Z,5.60
2023-01-20T14:08:30.592Z,5.50
2023-01-20T14:11:11.404Z,5.30
2023-01-20T14:13:38.856Z,5.30
2023-01-20T14:16:06.381Z,5.30
2023-01-20T14:18:33.674Z,5.20
2023-01-20T14:21:12.133Z,5.20
2023-01-20T14:23:46.089Z,5.10
2023-01-20T14:26:20.290Z,5.10
2023-01-20T14:28:50.500Z,5.00
2023-01-20T14:31:21.935Z,4.90
2023-01-20T14:33:59.563Z,4.90
2023-01-20T14:36:30.705Z,4.90
2023-01-20T14:39:03.614Z,5.00
2023-01-20T14:41:46.200Z,5.20
2023-01-20T14:44:18.006Z,5.40
2023-01-20T14:46:47.705Z,5.60
2023-01-20T14:49:17.905Z,6.10
2023-01-20T14:51:46.755Z,6.70
2023-01-20T14:54:36.925Z,7.00
2023-01-20T14:57:31.152Z,7.00
2023-01-20T15:00:25.753Z,7.30
2023-01-20T15:03:26.092Z,7.70
2023-01-20T15:05:59.125Z,7.50
2023-01-20T15:08:35.059Z,7.20
2023-01-20T15:16:45.206Z,7.40
2023-01-20T15:19:18.659Z,7.70
2023-01-20T15:21:52.979Z,7.60
2023-01-20T15:24:21.982Z,7.60
2023-01-20T15:26:51.878Z,7.40
2023-01-20T15:29:37.118Z,7.50
2023-01-20T15:32:11.922Z,7.30
2023-01-20T15:34:39.099Z,6.90
2023-01-20T15:37:18.675Z,6.50
2023-01-20T15:39:45.749Z,6.50
2023-01-20T15:42:15.501Z,6.50
2023-01-20T15:44:42.495Z,6.30
2023-01-20T15:47:19.940Z,6.10
2023-01-20T15:49:47.587Z,5.90
2023-01-20T15:52:14.551Z,5.80
2023-01-20T15:54:41.513Z,5.70
2023-01-20T15:57:16.058Z,5.50
2023-01-20T15:59:46.222Z,5.30
2023-01-20T16:02:22.044Z,5.30
2023-01-20T16:04:49.662Z,5.20
2023-01-20T16:07:19.177Z,5.20
2023-01-20T16:09:48.889Z,5.10
2023-01-20T16:12:18.119Z,5.00
2023-01-20T16:14:45.643Z,5.00
2023-01-20T16:17:18.490Z,4.90
2023-01-20T16:19:45.583Z,4.80
2023-01-20T16:22:13.611Z,4.70
2023-01-20T16:24:41.837Z,4.70
2023-01-20T16:27:21.606Z,4.70
2023-01-20T16:29:49.482Z,4.60
2023-01-20T16:32:18.268Z,4.70
2023-01-20T16:34:46.607Z,4.60
2023-01-20T16:37:14.790Z,4.50
2023-01-20T16:39:41.843Z,4.30
2023-01-20T16:42:16.093Z,4.10
2023-01-20T16:44:43.027Z,3.90
2023-01-20T16:47:10.095Z,3.80
2023-01-20T16:49:37.250Z,3.70
2023-01-20T16:52:04.430Z,3.80
2023-01-20T16:54:31.358Z,3.70
2023-01-20T16:56:58.353Z,3.60
2023-01-20T16:59:26.089Z,3.60
2023-01-20T17:01:53.082Z,3.50
2023-01-20T17:04:20.162Z,3.50
2023-01-20T17:06:47.133Z,3.50
2023-01-20T17:09:14.295Z,3.40
2023-01-20T17:11:41.317Z,3.40
2023-01-20T17:14:10.247Z,3.40
2023-01-20T17:16:38.522Z,3.30
2023-01-20T17:19:05.850Z,3.20
2023-01-20T17:21:37.007Z,3.10
2023-01-20T17:24:05.214Z,3.10
2023-01-20T17:26:32.719Z,3.10
2023-01-20T17:29:04.730Z,3.00
2023-01-20T17:31:35.609Z,3.00
2023-01-20T17:34:04.265Z,3.00
2023-01-20T17:36:34.535Z,3.00
2023-01-20T17:39:02.870Z,2.80
2023-01-20T17:41:29.830Z,2.70
2023-01-20T17:43:56.745Z,2.70
2023-01-20T17:46:27.773Z,2.60
2023-01-20T17:48:57.337Z,2.60
2023-01-20T17:51:26.382Z,2.50
2023-01-20T17:53:53.618Z,2.40
2023-01-20T17:56:22.399Z,2.40
2023-01-20T17:58:50.211Z,2.40
2023-01-20T18:01:35.658Z,2.40
2023-01-20T18:04:05.549Z,2.30
2023-01-20T18:06:36.412Z,2.20
2023-01-20T18:09:05.628Z,2.30
2023-01-20T18:11:35.321Z,2.30
2023-01-20T18:14:04.095Z,2.40
2023-01-20T18:16:34.624Z,2.40
2023-01-20T18:19:02.187Z,2.50
2023-01-20T18:21:35.335Z,2.50
2023-01-20T18:24:04.103Z,2.50
2023-01-20T18:26:33.056Z,2.60
2023-01-20T18:29:02.381Z,2.50
2023-01-20T18:31:31.977Z,2.50
2023-01-20T18:34:05.141Z,2.50
2023-01-20T18:36:37.499Z,2.30
2023-01-20T18:39:24.790Z,2.10
2023-01-20T18:41:52.160Z,1.90
2023-01-20T18:44:19.737Z,1.80
2023-01-20T18:46:47.057Z,1.70
2023-01-20T18:49:15.558Z,1.60
2023-01-20T18:51:43.108Z,1.60
2023-01-20T18:54:17.906Z,1.60
2023-01-20T18:56:45.280Z,1.60
2023-01-20T18:59:12.733Z,1.70
2023-01-20T19:01:41.019Z,1.60
2023-01-20T19:04:09.899Z,1.50
2023-01-20T19:06:39.451Z,1.40
2023-01-20T19:09:07.125Z,1.40
2023-01-20T19:11:36.451Z,1.40
2023-01-20T19:14:03.838Z,1.40
2023-01-20T19:16:34.059Z,1.30
2023-01-20T19:19:02.722Z,1.30
2023-01-20T19:21:33.437Z,1.40
2023-01-20T19:24:05.945Z,1.30
2023-01-20T19:26:35.688Z,1.30
2023-01-20T19:29:05.718Z,1.40
2023-01-20T19:31:35.575Z,1.30
2023-01-20T19:34:02.949Z,1.30
2023-01-20T19:36:30.220Z,1.30
2023-01-20T19:38:58.355Z,1.40
2023-01-20T19:41:28.386Z,1.50
2023-01-20T19:43:57.620Z,1.60
2023-01-20T19:46:26.968Z,1.60
2023-01-20T19:48:56.110Z,1.50
2023-01-20T19:51:23.524Z,1.40
2023-01-20T19:54:00.209Z,1.40
2023-01-20T19:56:30.369Z,1.50
2023-01-20T19:58:58.110Z,1.50
2023-01-20T20:01:30.515Z,1.50
2023-01-20T20:03:58.702Z,1.40
2023-01-20T20:06:39.396Z,1.50
2023-01-20T20:09:18.026Z,1.40
2023-01-20T20:11:46.146Z,1.30
2023-01-20T20:14:15.342Z,1.30
2023-01-20T20:16:42.475Z,1.20
2023-01-20T20:19:12.306Z,1.10
2023-01-20T20:21:42.743Z,1.10
2023-01-20T20:24:13.000Z,0.90
2023-01-20T20:26:41.153Z,0.70
2023-01-20T20:29:08.671Z,0.70
2023-01-20T20:31:37.719Z,0.80
2023-01-20T20:34:07.160Z,0.70
2023-01-20T20:36:34.556Z,0.60
2023-01-20T20:39:03.602Z,0.50
2023-01-20T20:41:31.870Z,0.50
2023-01-20T20:44:00.812Z,0.40
2023-01-20T20:46:28.783Z,0.50
2023-01-20T20:48:59.340Z,0.50
2023-01-20T20:51:26.898Z,0.50
2023-01-20T20:53:55.789Z,0.50
2023-01-20T20:56:23.833Z,0.50
2023-01-20T20:59:01.060Z,0.50
2023-01-20T21:01:31.289Z,0.50
2023-01-20T21:04:00.466Z,0.50
2023-01-20T21:06:28.276Z,0.50
2023-01-20T21:08:55.617Z,0.50
2023-01-20T21:11:24.194Z,0.50
2023-01-20T21:13:51.734Z,0.50
2023-01-20T21:16:22.842Z,0.50
2023-01-20T21:18:52.201Z,0.40
2023-01-20T21:21:19.738Z,0.30
2023-01-20T21:23:58.631Z,0.20
2023-01-20T21:26:30.059Z,0.20
2023-01-20T21:29:00.279Z,0.20
2023-01-20T21:31:27.359Z,0.20
2023-01-20T21:34:00.470Z,0.10
2023-01-20T21:36:28.717Z,0.10
2023-01-20T21:38:55.734Z,0.20
2023-01-20T21:41:22.732Z,0.30
2023-01-20T21:44:08.789Z,0.30
2023-01-20T21:46:39.384Z,0.40
2023-01-20T21:49:26.408Z,0.60
2023-01-20T21:52:13.101Z,0.60
2023-01-20T21:54:41.450Z,0.70
2023-01-20T21:57:08.761Z,0.60
2023-01-20T21:59:35.694Z,0.70
2023-01-20T22:02:02.643Z,0.70
2023-01-20T22:04:29.859Z,0.70
2023-01-20T22:06:56.927Z,0.80
2023-01-20T22:09:23.860Z,0.80
2023-01-20T22:11:51.098Z,0.80
2023-01-20T22:14:18.124Z,0.80
2023-01-20T22:16:45.202Z,0.70
2023-01-20T22:19:13.771Z,0.70
2023-01-20T22:21:41.120Z,0.70
2023-01-20T22:24:08.598Z,0.70
2023-01-20T22:26:35.691Z,0.60
2023-01-20T22:29:02.713Z,0.60
2023-01-20T22:31:30.422Z,0.60
2023-01-20T22:33:58.945Z,0.50
2023-01-20T22:36:26.005Z,0.60
2023-01-20T22:38:53.471Z,0.60
2023-01-20T22:41:21.225Z,0.50
2023-01-20T22:43:50.335Z,0.50
2023-01-20T22:46:19.850Z,0.60
2023-01-20T22:48:47.610Z,0.60
2023-01-20T22:51:15.860Z,0.60
2023-01-20T22:53:43.386Z,0.60
2023-01-20T22:56:14.667Z,0.50
2023-01-20T22:58:43.940Z,0.50
2023-01-20T23:01:15.679Z,0.50
2023-01-20T23:03:43.157Z,0.50
2023-01-20T23:06:11.294Z,0.40
2023-01-20T23:08:38.909Z,0.40
2023-01-20T23:11:12.663Z,0.30
2023-01-20T23:13:40.245Z,0.30
2023-01-20T23:16:10.356Z,0.30
2023-01-20T23:18:37.373Z,0.40
2023-01-20T23:21:06.107Z,0.30
2023-01-20T23:23:33.783Z,0.30
2023-01-20T23:26:12.656Z,0.30
2023-01-20T23:28:39.748Z,0.30
2023-01-20T23:31:09.001Z,0.20
2023-01-20T23:33:36.341Z,0.30
2023-01-20T23:36:05.744Z,0.20
2023-01-20T23:38:33.035Z,0.20
2023-01-20T23:41:00.974Z,0.30
2023-01-20T23:43:28.011Z,0.50
2023-01-20T23:46:03.272Z,0.60
2023-01-20T23:48:30.548Z,0.60
2023-01-20T23:51:00.077Z,0.70
2023-01-20T23:53:28.653Z,0.70
2023-01-20T23:56:03.337Z,0.70
2023-01-20T23:58:30.600Z,0.80
